Time;durP1;ratioP1;P1;durP2;ratioP2;P2;SDS_P1;SDS_P2;PMS_P1;PMS_P2;Temp;Humidity;BMP_temperature;BMP_pressure;BME280_temperature;BME280_humidity;BME280_pressure;Samples;Min_cycle;Max_cycle;Signal;HPM_P1;HPM_P2
2022/01/03 00:00:09;;;;;;;6.10;1.20;;;11.40;99.90;;;;;;4996923;28;20183;-79
2022/01/03 00:02:35;;;;;;;6.67;1.37;;;11.50;99.90;;;;;;4979546;28;20224;-79
2022/01/03 00:05:01;;;;;;;4.77;1.10;;;11.50;99.90;;;;;;4996725;28;20215;-79
2022/01/03 00:07:27;;;;;;;3.10;1.00;;;11.50;99.90;;;;;;4996748;28;20185;-79
2022/01/03 00:09:53;;;;;;;2.67;0.93;;;11.50;99.90;;;;;;4983120;28;20189;-79
2022/01/03 00:12:21;;;;;;;1.40;0.90;;;11.40;99.90;;;;;;4979202;28;20177;-78
2022/01/03 00:14:51;;;;;;;6.47;1.30;;;11.40;99.90;;;;;;4979132;28;20186;-78
2022/01/03 00:17:16;;;;;;;4.30;1.33;;;11.50;99.90;;;;;;4979192;28;20267;-78
2022/01/03 00:19:42;;;;;;;3.90;1.20;;;11.50;99.90;;;;;;4979866;28;20652;-79
2022/01/03 00:22:12;;;;;;;5.00;1.50;;;11.50;99.90;;;;;;4996976;28;20288;-79
2022/01/03 00:24:43;;;;;;;5.20;1.13;;;11.50;99.90;;;;;;4979253;28;20208;-79
2022/01/03 00:27:15;;;;;;;5.83;1.23;;;11.50;99.90;;;;;;4996332;28;20227;-79
2022/01/03 00:29:48;;;;;;;3.57;1.60;;;11.50;99.90;;;;;;4996004;28;20575;-79
2022/01/03 00:32:14;;;;;;;3.13;1.20;;;11.50;99.90;;;;;;4979205;28;20212;-79
2022/01/03 00:34:41;;;;;;;6.37;1.50;;;11.50;99.90;;;;;;4996561;28;20182;-78
2022/01/03 00:37:08;;;;;;;5.30;1.40;;;11.50;99.90;;;;;;4996363;28;20307;-79
2022/01/03 00:39:34;;;;;;;2.47;0.90;;;11.50;99.90;;;;;;4995664;28;20192;-79
2022/01/03 00:42:00;;;;;;;5.07;1.27;;;11.50;99.90;;;;;;4995924;28;20218;-79
2022/01/03 00:44:26;;;;;;;5.10;1.20;;;11.50;99.90;;;;;;4978652;28;20181;-79
2022/01/03 00:46:53;;;;;;;3.63;1.10;;;11.40;99.90;;;;;;4979218;28;20202;-79
2022/01/03 00:49:19;;;;;;;4.63;1.40;;;11.40;99.90;;;;;;4978738;28;20209;-79
2022/01/03 00:51:45;;;;;;;3.03;1.00;;;11.40;99.90;;;;;;4996384;28;20187;-79
2022/01/03 00:54:11;;;;;;;2.70;1.10;;;11.50;99.90;;;;;;4996242;28;20178;-79
2022/01/03 00:56:46;;;;;;;4.83;1.23;;;11.50;99.90;;;;;;4996041;28;20205;-79
2022/01/03 00:59:16;;;;;;;4.40;1.30;;;11.50;99.90;;;;;;4995657;28;20299;-79
2022/01/03 01:01:49;;;;;;;3.33;1.33;;;11.50;99.90;;;;;;4995853;28;20191;-79
2022/01/03 01:04:17;;;;;;;10.40;1.30;;;11.50;99.90;;;;;;4979260;28;20226;-78
2022/01/03 01:06:43;;;;;;;3.63;1.30;;;11.50;99.90;;;;;;4978393;28;20205;-79
2022/01/03 01:09:12;;;;;;;3.43;1.37;;;11.50;99.90;;;;;;4977993;28;20217;-79
2022/01/03 01:11:42;;;;;;;4.20;1.60;;;11.50;99.90;;;;;;4978471;28;20183;-79
2022/01/03 01:14:08;;;;;;;3.37;1.00;;;11.50;99.90;;;;;;4978471;28;20182;-79
2022/01/03 01:16:34;;;;;;;5.30;1.13;;;11.50;99.90;;;;;;4978048;28;20197;-78
2022/01/03 01:19:00;;;;;;;6.50;1.20;;;11.50;99.90;;;;;;4977992;28;20314;-79
2022/01/03 01:21:27;;;;;;;3.17;1.10;;;11.40;99.90;;;;;;4995942;28;20183;-79
2022/01/03 01:23:56;;;;;;;3.67;1.20;;;11.50;99.90;;;;;;4995810;28;20698;-79
2022/01/03 01:29:08;;;;;;;5.40;1.20;;;11.40;99.90;;;;;;4992109;28;20599;-78
2022/01/03 01:31:36;;;;;;;4.17;0.80;;;11.50;99.90;;;;;;4995743;28;20621;-78
2022/01/03 01:34:04;;;;;;;7.07;1.60;;;11.50;99.90;;;;;;4995727;28;20173;-79
2022/01/03 01:36:32;;;;;;;5.07;1.40;;;11.50;99.90;;;;;;4995220;28;20194;-79
2022/01/03 01:39:10;;;;;;;6.37;1.30;;;11.50;99.90;;;;;;4995235;28;20184;-79
2022/01/03 01:41:42;;;;;;;4.57;1.33;;;11.50;99.90;;;;;;4996252;28;20676;-79
2022/01/03 01:44:10;;;;;;;8.00;1.73;;;11.40;99.90;;;;;;5003890;28;20174;-78
2022/01/03 01:46:44;;;;;;;6.10;1.13;;;11.40;99.90;;;;;;4981752;28;20203;-79
2022/01/03 01:49:16;;;;;;;5.87;1.70;;;11.30;99.90;;;;;;4999162;28;20174;-79
2022/01/03 01:51:46;;;;;;;4.13;1.10;;;11.40;99.90;;;;;;4999546;28;20174;-79
2022/01/03 01:54:16;;;;;;;4.07;1.20;;;11.40;99.90;;;;;;4981321;28;20178;-79
2022/01/03 01:56:54;;;;;;;2.33;1.23;;;11.40;99.90;;;;;;4982485;28;20226;-79
2022/01/03 01:59:25;;;;;;;2.57;0.90;;;11.40;99.90;;;;;;4981529;28;20182;-79
2022/01/03 02:02:10;;;;;;;3.03;0.90;;;11.40;99.90;;;;;;5001128;28;20246;-79
2022/01/03 02:04:41;;;;;;;4.73;1.33;;;11.40;99.90;;;;;;5003752;28;20212;-78
2022/01/03 02:07:27;;;;;;;4.87;0.80;;;11.40;99.90;;;;;;4981190;28;20204;-79
2022/01/03 02:10:10;;;;;;;6.53;1.37;;;11.40;99.90;;;;;;5002221;28;20281;-79
2022/01/03 02:12:39;;;;;;;4.10;1.03;;;11.40;99.90;;;;;;5000987;28;20236;-78
2022/01/03 02:15:10;;;;;;;2.80;0.80;;;11.40;99.90;;;;;;5001148;28;20708;-78
2022/01/03 02:17:37;;;;;;;3.77;1.20;;;11.40;99.90;;;;;;4999216;28;20592;-78
2022/01/03 02:20:06;;;;;;;3.47;0.80;;;11.40;99.90;;;;;;4980908;28;20184;-78
2022/01/03 02:22:32;;;;;;;2.43;0.90;;;11.40;99.90;;;;;;4999151;28;20264;-79
2022/01/03 02:24:58;;;;;;;4.80;0.87;;;11.30;99.90;;;;;;4998746;28;20181;-79
2022/01/03 02:27:24;;;;;;;4.77;1.00;;;11.40;99.90;;;;;;4981376;28;20555;-79
2022/01/03 02:29:49;;;;;;;4.10;1.03;;;11.40;99.90;;;;;;4981523;28;20279;-79
2022/01/03 02:32:15;;;;;;;2.83;0.90;;;11.40;99.90;;;;;;4998887;28;20179;-79
2022/01/03 02:34:44;;;;;;;3.67;0.90;;;11.40;99.90;;;;;;4998844;28;20247;-78
2022/01/03 02:37:10;;;;;;;3.77;0.97;;;11.30;99.90;;;;;;4999156;28;20657;-79
2022/01/03 02:39:37;;;;;;;6.20;1.00;;;11.30;99.90;;;;;;4998010;28;20219;-78
2022/01/03 02:42:03;;;;;;;3.90;1.07;;;11.30;99.90;;;;;;4981600;28;20187;-78
2022/01/03 02:44:29;;;;;;;4.13;1.03;;;11.30;99.90;;;;;;4998748;28;20178;-79
2022/01/03 02:46:54;;;;;;;4.93;0.87;;;11.20;99.90;;;;;;4980943;28;20202;-79
2022/01/03 02:49:20;;;;;;;5.00;0.87;;;11.20;99.90;;;;;;4998205;28;20204;-79
2022/01/03 02:51:46;;;;;;;8.60;1.30;;;11.20;99.90;;;;;;4995124;28;20322;-78
2022/01/03 02:54:13;;;;;;;4.37;1.10;;;11.30;99.90;;;;;;4979485;28;20183;-79
2022/01/03 02:56:42;;;;;;;5.63;1.53;;;11.30;99.90;;;;;;4996536;28;20197;-79
2022/01/03 02:59:12;;;;;;;4.23;0.87;;;11.30;99.90;;;;;;4995727;28;20580;-79
2022/01/03 03:01:41;;;;;;;4.63;1.23;;;11.30;99.90;;;;;;4997294;28;20181;-79
2022/01/03 03:04:07;;;;;;;5.27;1.20;;;11.30;99.90;;;;;;4980718;28;20215;-79
2022/01/03 03:06:33;;;;;;;4.07;1.10;;;11.30;99.90;;;;;;4980167;28;20215;-78
2022/01/03 03:08:59;;;;;;;3.00;0.90;;;11.30;99.90;;;;;;4979650;28;20181;-79
2022/01/03 03:11:24;;;;;;;6.30;1.20;;;11.30;99.90;;;;;;4997991;28;20200;-79
2022/01/03 03:13:50;;;;;;;7.77;1.10;;;11.20;99.90;;;;;;4998223;28;20184;-78
2022/01/03 03:16:16;;;;;;;2.57;0.93;;;11.20;99.90;;;;;;4998028;28;20202;-78
2022/01/03 03:18:44;;;;;;;5.27;1.20;;;11.20;99.90;;;;;;4997600;28;20187;-79
2022/01/03 03:21:10;;;;;;;4.37;1.00;;;11.20;99.90;;;;;;4997923;28;20180;-78
2022/01/03 03:23:35;;;;;;;2.80;0.73;;;11.20;99.90;;;;;;4997782;28;20188;-79
2022/01/03 03:26:01;;;;;;;4.53;0.90;;;11.20;99.90;;;;;;4997616;28;20221;-79
2022/01/03 03:28:27;;;;;;;3.50;1.13;;;11.30;99.90;;;;;;4997695;28;20185;-79
2022/01/03 03:30:54;;;;;;;5.40;1.23;;;11.20;99.90;;;;;;4996966;28;20199;-79
2022/01/03 03:33:22;;;;;;;1.50;0.80;;;11.20;99.90;;;;;;4997695;28;20173;-79
2022/01/03 03:35:52;;;;;;;3.30;0.90;;;11.20;99.90;;;;;;4997160;28;20190;-78
2022/01/03 03:38:19;;;;;;;6.17;1.40;;;11.20;99.90;;;;;;4979412;28;20188;-79
2022/01/03 03:40:47;;;;;;;3.67;0.90;;;11.20;99.90;;;;;;4996383;28;20232;-79
2022/01/03 03:43:14;;;;;;;4.87;1.37;;;11.20;99.90;;;;;;4997405;28;20588;-79
2022/01/03 03:45:40;;;;;;;6.70;1.10;;;11.20;99.90;;;;;;4979930;28;20297;-78
2022/01/03 03:48:06;;;;;;;4.10;0.90;;;11.20;99.90;;;;;;5006462;28;20666;-79
2022/01/03 03:50:32;;;;;;;4.53;1.00;;;11.20;99.90;;;;;;5001623;28;20204;-79
2022/01/03 03:52:58;;;;;;;6.50;0.93;;;11.20;99.90;;;;;;4980417;28;20263;-79
2022/01/03 03:55:23;;;;;;;5.30;1.37;;;11.20;99.90;;;;;;4996222;28;20197;-79
2022/01/03 03:57:49;;;;;;;4.30;1.20;;;11.20;99.90;;;;;;4996708;28;20244;-78
2022/01/03 04:00:17;;;;;;;4.50;1.20;;;11.10;99.90;;;;;;4996773;28;20184;-79
2022/01/03 04:02:43;;;;;;;3.70;0.90;;;11.10;99.90;;;;;;4996989;28;20176;-79
2022/01/03 04:05:09;;;;;;;3.10;1.03;;;11.10;99.90;;;;;;5009819;28;20216;-79
2022/01/03 04:07:36;;;;;;;3.90;1.03;;;11.20;99.90;;;;;;4996292;28;20184;-78
2022/01/03 04:10:07;;;;;;;3.40;0.83;;;11.10;99.90;;;;;;4978500;28;20189;-79
2022/01/03 04:12:33;;;;;;;5.07;1.03;;;11.10;99.90;;;;;;5008866;28;20660;-78
2022/01/03 04:14:58;;;;;;;3.63;1.00;;;11.10;99.90;;;;;;4982181;28;20181;-79
2022/01/03 04:17:24;;;;;;;5.90;0.90;;;11.10;99.90;;;;;;5001524;28;20224;-79
2022/01/03 04:19:49;;;;;;;4.07;1.23;;;11.10;99.90;;;;;;4978689;28;20180;-79
2022/01/03 04:22:15;;;;;;;4.90;1.10;;;11.10;99.90;;;;;;4997024;28;20220;-78
2022/01/03 04:24:41;;;;;;;5.07;1.40;;;11.10;99.90;;;;;;4979468;28;20184;-78
2022/01/03 04:27:07;;;;;;;3.67;0.93;;;11.10;99.90;;;;;;4995922;28;20258;-78
2022/01/03 04:29:32;;;;;;;4.77;1.17;;;11.10;99.90;;;;;;4976776;28;20686;-78
2022/01/03 04:31:58;;;;;;;4.23;0.90;;;11.10;99.90;;;;;;4995040;28;20184;-79
2022/01/03 04:34:24;;;;;;;4.37;0.87;;;11.10;99.90;;;;;;4995051;28;20223;-80
2022/01/03 04:36:49;;;;;;;2.80;0.97;;;11.10;99.90;;;;;;4995038;28;20200;-79
2022/01/03 04:39:15;;;;;;;8.83;1.20;;;11.10;99.90;;;;;;4977334;28;20173;-78
2022/01/03 04:41:41;;;;;;;3.67;1.00;;;11.10;99.90;;;;;;4995227;28;20718;-79
2022/01/03 04:44:07;;;;;;;3.90;1.23;;;11.10;99.90;;;;;;4977405;28;20177;-79
2022/01/03 04:46:34;;;;;;;5.20;0.87;;;11.00;99.90;;;;;;4994467;28;20696;-79
2022/01/03 04:49:00;;;;;;;3.30;1.00;;;11.10;99.90;;;;;;4997293;28;20176;-79
2022/01/03 04:51:26;;;;;;;4.07;1.00;;;11.00;99.90;;;;;;5006465;28;20231;-79
2022/01/03 04:53:52;;;;;;;3.50;0.93;;;11.00;99.90;;;;;;4994522;28;20184;-78
2022/01/03 04:56:18;;;;;;;1.90;0.70;;;11.00;99.90;;;;;;4978460;28;20213;-78
2022/01/03 04:58:44;;;;;;;5.77;1.33;;;11.00;99.90;;;;;;4995844;28;20656;-79
2022/01/03 05:01:10;;;;;;;3.67;1.00;;;10.90;99.90;;;;;;4991457;28;20181;-79
2022/01/03 05:03:36;;;;;;;3.37;0.87;;;10.90;99.90;;;;;;4987348;28;20310;-79
2022/01/03 05:06:02;;;;;;;5.33;0.90;;;10.90;99.90;;;;;;4980385;28;20193;-79
2022/01/03 05:08:29;;;;;;;6.27;0.97;;;11.00;99.90;;;;;;4976765;28;20183;-79
2022/01/03 05:10:55;;;;;;;2.27;1.10;;;10.90;99.90;;;;;;4977266;28;20224;-79
2022/01/03 05:13:21;;;;;;;4.97;0.93;;;10.90;99.90;;;;;;4994666;28;20169;-78
2022/01/03 05:15:47;;;;;;;3.40;1.00;;;10.80;99.90;;;;;;4976084;28;20756;-78
2022/01/03 05:18:13;;;;;;;3.60;0.93;;;10.90;99.90;;;;;;4994434;28;20187;-78
2022/01/03 05:20:39;;;;;;;3.40;0.80;;;10.80;99.90;;;;;;4993590;28;20216;-77
2022/01/03 05:23:05;;;;;;;7.37;1.87;;;10.80;99.90;;;;;;4976754;28;20190;-78
2022/01/03 05:25:30;;;;;;;3.87;1.00;;;10.70;99.90;;;;;;4978780;28;20216;-78
2022/01/03 05:27:56;;;;;;;3.40;0.73;;;10.80;99.90;;;;;;4994246;28;20181;-79
2022/01/03 05:30:25;;;;;;;5.03;1.27;;;10.70;99.90;;;;;;4992696;28;20211;-78
2022/01/03 05:32:51;;;;;;;6.23;1.17;;;10.70;99.90;;;;;;4993075;28;20175;-78
2022/01/03 05:35:17;;;;;;;4.97;1.27;;;10.70;99.90;;;;;;4992884;28;20672;-78
2022/01/03 05:37:42;;;;;;;4.50;1.00;;;10.70;99.90;;;;;;4994276;28;20263;-79
2022/01/03 05:40:09;;;;;;;3.27;1.00;;;10.70;99.90;;;;;;4993568;28;20186;-79
2022/01/03 05:42:34;;;;;;;4.10;1.10;;;10.60;99.90;;;;;;4994873;28;20177;-78
2022/01/03 05:45:00;;;;;;;3.07;0.87;;;10.60;99.90;;;;;;4993493;28;20201;-79
2022/01/03 05:47:26;;;;;;;4.23;0.80;;;10.60;99.90;;;;;;4994450;28;20185;-78
2022/01/03 05:49:53;;;;;;;5.23;1.00;;;10.70;99.90;;;;;;4994090;28;20219;-78
2022/01/03 05:52:18;;;;;;;5.80;1.17;;;10.60;99.90;;;;;;4993875;28;20202;-78
2022/01/03 05:54:44;;;;;;;6.57;1.30;;;10.70;99.90;;;;;;4994316;28;20564;-78
2022/01/03 05:57:10;;;;;;;5.70;0.80;;;10.70;99.90;;;;;;4994420;28;20283;-78
2022/01/03 05:59:35;;;;;;;3.53;0.90;;;10.70;99.90;;;;;;4993790;28;20192;-79
2022/01/03 06:02:03;;;;;;;5.93;1.00;;;10.70;99.90;;;;;;4994390;28;20186;-78
2022/01/03 06:04:41;;;;;;;4.07;0.97;;;10.60;99.90;;;;;;4994694;28;20279;-79
2022/01/03 06:07:08;;;;;;;6.03;1.40;;;10.60;99.90;;;;;;4994186;28;20699;-78
2022/01/03 06:09:35;;;;;;;5.60;1.20;;;10.60;99.90;;;;;;4994015;28;20279;-78
2022/01/03 06:12:02;;;;;;;5.40;1.10;;;10.60;99.90;;;;;;4994632;28;20524;-78
2022/01/03 06:14:28;;;;;;;4.63;1.60;;;10.60;99.90;;;;;;5005198;28;20183;-78
2022/01/03 06:16:54;;;;;;;6.50;1.60;;;10.60;99.90;;;;;;4995680;28;20679;-77
2022/01/03 06:19:20;;;;;;;7.27;1.20;;;10.60;99.90;;;;;;5002028;28;20221;-79
2022/01/03 06:21:46;;;;;;;4.30;0.80;;;10.60;99.90;;;;;;4996357;28;20181;-78
2022/01/03 06:24:13;;;;;;;5.33;1.40;;;10.60;99.90;;;;;;4994335;28;20180;-78
2022/01/03 06:26:41;;;;;;;3.53;1.00;;;10.70;99.90;;;;;;5003364;28;20229;-78
2022/01/03 06:29:08;;;;;;;5.50;1.03;;;10.60;99.90;;;;;;4978909;28;20569;-78
2022/01/03 06:31:34;;;;;;;3.13;0.80;;;10.60;99.90;;;;;;4997573;28;20180;-78
2022/01/03 06:34:00;;;;;;;2.37;1.07;;;10.60;99.90;;;;;;4985914;28;20183;-78
2022/01/03 06:36:26;;;;;;;2.63;0.80;;;10.60;99.90;;;;;;5006363;28;20264;-78
2022/01/03 06:38:52;;;;;;;4.47;0.90;;;10.60;99.90;;;;;;4997237;28;20176;-78
2022/01/03 06:41:18;;;;;;;3.30;0.90;;;10.60;99.90;;;;;;4998002;28;20246;-78
2022/01/03 06:43:44;;;;;;;5.70;0.90;;;10.50;99.90;;;;;;4997519;28;20184;-78
2022/01/03 06:46:09;;;;;;;4.00;0.90;;;10.60;99.90;;;;;;4997260;28;20287;-78
2022/01/03 06:48:35;;;;;;;4.47;1.27;;;10.60;99.90;;;;;;4997236;28;20704;-78
2022/01/03 06:51:01;;;;;;;4.90;1.10;;;10.50;99.90;;;;;;4997220;28;20207;-78
2022/01/03 06:53:27;;;;;;;6.23;0.90;;;10.50;99.90;;;;;;4997202;28;20177;-78
2022/01/03 06:55:52;;;;;;;3.80;1.30;;;10.50;99.90;;;;;;4997151;28;20208;-78
2022/01/03 06:58:19;;;;;;;7.43;1.40;;;10.50;99.90;;;;;;4979894;28;20180;-77
2022/01/03 07:00:44;;;;;;;4.07;0.90;;;10.50;99.90;;;;;;4980876;28;20190;-78
2022/01/03 07:03:10;;;;;;;3.47;1.00;;;10.50;99.90;;;;;;4997141;28;20643;-78
2022/01/03 07:05:35;;;;;;;2.50;0.80;;;10.50;99.90;;;;;;4997054;28;20623;-78
2022/01/03 07:08:01;;;;;;;5.00;1.10;;;10.50;99.90;;;;;;4980054;28;20184;-78
2022/01/03 07:10:27;;;;;;;6.27;1.20;;;10.50;99.90;;;;;;4996769;28;20602;-78
2022/01/03 07:12:54;;;;;;;3.37;0.80;;;10.50;99.90;;;;;;4979617;28;20183;-78
2022/01/03 07:20:50;;;;;;;4.27;0.90;;;10.50;99.90;;;;;;4993026;28;20191;-78
2022/01/03 07:23:18;;;;;;;4.57;0.80;;;10.50;99.90;;;;;;4995798;28;20187;-78
2022/01/03 07:25:45;;;;;;;7.10;1.43;;;10.40;99.90;;;;;;4996213;28;20223;-78
2022/01/03 07:28:11;;;;;;;3.73;1.13;;;10.50;99.90;;;;;;4996575;28;20176;-78
2022/01/03 07:30:37;;;;;;;4.57;0.80;;;10.40;99.90;;;;;;4993095;28;20206;-78
2022/01/03 07:33:03;;;;;;;5.27;1.00;;;10.50;99.90;;;;;;4996196;28;20184;-79
2022/01/03 07:35:28;;;;;;;2.13;0.83;;;10.40;99.90;;;;;;5003389;28;20205;-78
2022/01/03 07:37:54;;;;;;;2.37;1.10;;;10.40;99.90;;;;;;4981137;28;20185;-78
2022/01/03 07:40:23;;;;;;;3.47;0.90;;;10.50;99.90;;;;;;4992841;28;20690;-78
2022/01/03 07:42:49;;;;;;;7.60;1.70;;;10.40;99.90;;;;;;4980879;28;20183;-79
2022/01/03 07:45:15;;;;;;;4.70;0.90;;;10.40;99.90;;;;;;5004779;28;20574;-79
2022/01/03 07:47:40;;;;;;;4.57;0.80;;;10.40;99.90;;;;;;5002079;28;20545;-78
2022/01/03 07:50:07;;;;;;;5.93;1.00;;;10.40;99.90;;;;;;4996174;28;20200;-78
2022/01/03 07:52:33;;;;;;;3.43;1.00;;;10.40;99.90;;;;;;4979776;28;20184;-78
2022/01/03 07:54:59;;;;;;;3.73;1.10;;;10.40;99.90;;;;;;5004116;28;20195;-78
2022/01/03 07:57:25;;;;;;;6.57;1.17;;;10.40;99.90;;;;;;4983692;28;20188;-78
2022/01/03 07:59:51;;;;;;;5.00;1.00;;;10.40;99.90;;;;;;4996558;28;20727;-78
2022/01/03 08:02:18;;;;;;;5.93;1.00;;;10.40;99.90;;;;;;4979451;28;20198;-77
2022/01/03 08:04:45;;;;;;;5.87;1.37;;;10.50;99.90;;;;;;4993362;28;20254;-78
2022/01/03 08:07:11;;;;;;;3.73;1.00;;;10.50;99.90;;;;;;4978705;28;20290;-78
2022/01/03 08:09:37;;;;;;;7.07;1.23;;;10.50;99.90;;;;;;4984011;28;20286;-78
2022/01/03 08:12:03;;;;;;;4.90;0.90;;;10.50;99.90;;;;;;4998964;28;20188;-77
2022/01/03 08:14:29;;;;;;;4.00;0.97;;;10.40;99.90;;;;;;4979131;28;20186;-78
2022/01/03 08:16:55;;;;;;;4.93;0.90;;;10.50;99.90;;;;;;4995929;28;20200;-78
2022/01/03 08:19:20;;;;;;;5.27;0.90;;;10.50;99.90;;;;;;4986889;28;20275;-78
2022/01/03 08:21:46;;;;;;;2.50;1.00;;;10.50;99.90;;;;;;4994633;28;20184;-78
2022/01/03 08:24:11;;;;;;;5.93;0.97;;;10.50;99.90;;;;;;4991874;28;20182;-78
2022/01/03 08:26:38;;;;;;;7.33;1.40;;;10.60;99.90;;;;;;5009650;28;20679;-78
2022/01/03 08:29:05;;;;;;;4.43;1.10;;;10.50;99.90;;;;;;5003910;28;20187;-78
2022/01/03 08:31:31;;;;;;;6.50;1.03;;;10.50;99.90;;;;;;4994191;28;20642;-79
2022/01/03 08:33:57;;;;;;;2.33;0.70;;;10.60;99.90;;;;;;4992102;28;20553;-78
2022/01/03 08:36:23;;;;;;;6.20;1.03;;;10.60;99.90;;;;;;5008325;28;20194;-76
2022/01/03 08:38:49;;;;;;;3.17;0.80;;;10.60;99.90;;;;;;5000489;28;20651;-78
2022/01/03 08:41:15;;;;;;;4.60;1.27;;;10.60;99.90;;;;;;5003291;28;20646;-79
2022/01/03 08:43:41;;;;;;;4.87;1.43;;;10.60;99.90;;;;;;4996074;28;20211;-79
2022/01/03 08:46:06;;;;;;;6.33;1.40;;;10.60;99.90;;;;;;4995099;28;20676;-79
2022/01/03 08:48:33;;;;;;;10.03;1.53;;;10.60;99.90;;;;;;4995481;28;20232;-79
2022/01/03 08:50:59;;;;;;;3.77;1.23;;;10.60;99.90;;;;;;4988361;28;20204;-79
2022/01/03 08:53:26;;;;;;;4.53;1.03;;;10.70;99.90;;;;;;4998887;28;20175;-78
2022/01/03 08:55:56;;;;;;;3.53;1.50;;;10.70;99.90;;;;;;5000436;28;20189;-78
2022/01/03 08:58:22;;;;;;;3.37;0.90;;;10.70;99.90;;;;;;4994013;28;20252;-75
2022/01/03 09:00:48;;;;;;;2.77;1.00;;;10.70;99.90;;;;;;4995863;28;20273;-76
2022/01/03 09:03:14;;;;;;;7.30;2.40;;;10.60;99.90;;;;;;4992711;28;20278;-76
2022/01/03 09:05:40;;;;;;;7.47;2.10;;;10.70;99.90;;;;;;4996460;28;20211;-76
2022/01/03 09:08:06;;;;;;;6.37;2.00;;;10.70;99.90;;;;;;5004721;28;20238;-75
2022/01/03 09:10:32;;;;;;;4.03;1.30;;;10.70;99.90;;;;;;4994109;28;20582;-78
2022/01/03 09:12:58;;;;;;;6.83;1.40;;;10.70;99.90;;;;;;4995539;28;20267;-76
2022/01/03 09:15:23;;;;;;;5.70;1.20;;;10.70;99.90;;;;;;5005739;28;20629;-76
2022/01/03 09:17:49;;;;;;;8.10;1.40;;;10.70;99.90;;;;;;4993816;28;20183;-75
2022/01/03 09:20:16;;;;;;;5.57;1.47;;;10.70;99.90;;;;;;4997201;28;20172;-77
2022/01/03 09:22:46;;;;;;;3.47;1.13;;;10.70;99.90;;;;;;4991495;28;20183;-75
2022/01/03 09:30:33;;;;;;;4.83;1.50;;;10.70;99.90;;;;;;4994329;28;20279;-77
2022/01/03 09:32:58;;;;;;;4.60;1.10;;;10.70;99.90;;;;;;4993103;28;20190;-78
2022/01/03 09:35:24;;;;;;;2.30;1.03;;;10.70;99.90;;;;;;4993350;28;20281;-76
2022/01/03 09:37:50;;;;;;;5.27;1.00;;;10.70;99.90;;;;;;5006481;28;20190;-76
2022/01/03 09:40:17;;;;;;;4.53;1.40;;;10.80;99.90;;;;;;4977447;28;20180;-76
2022/01/03 09:42:47;;;;;;;6.40;1.50;;;10.80;99.90;;;;;;4992716;28;20184;-77
2022/01/03 09:45:15;;;;;;;4.27;1.10;;;10.80;99.90;;;;;;4976919;28;20224;-79
2022/01/03 09:47:44;;;;;;;2.93;1.17;;;10.80;99.90;;;;;;4993919;28;20187;-77
2022/01/03 09:50:16;;;;;;;4.80;0.87;;;11.00;99.90;;;;;;4993845;28;20207;-79
2022/01/03 09:52:47;;;;;;;5.27;1.10;;;10.90;99.90;;;;;;4979022;28;20545;-76
2022/01/03 09:55:14;;;;;;;3.30;0.80;;;10.80;99.90;;;;;;4977427;28;20576;-78
2022/01/03 09:57:44;;;;;;;10.00;1.30;;;10.90;99.90;;;;;;4972729;28;20267;-78
2022/01/03 10:00:10;;;;;;;3.60;1.60;;;10.90;99.90;;;;;;4993987;28;20179;-79
2022/01/03 10:02:36;;;;;;;4.27;1.10;;;10.90;99.90;;;;;;4980387;28;20269;-79
2022/01/03 10:05:02;;;;;;;3.13;1.07;;;10.90;99.90;;;;;;4980902;28;20255;-80
2022/01/03 10:07:33;;;;;;;4.50;1.20;;;10.90;99.90;;;;;;4982881;28;20192;-77
2022/01/03 10:10:00;;;;;;;3.40;0.97;;;10.90;99.90;;;;;;4985453;28;20211;-77
2022/01/03 10:12:26;;;;;;;4.33;1.47;;;11.00;99.90;;;;;;4986657;28;20180;-76
2022/01/03 10:14:51;;;;;;;4.50;1.30;;;10.90;99.90;;;;;;4985355;28;20176;-77
2022/01/03 10:17:17;;;;;;;7.77;1.40;;;10.90;99.90;;;;;;4979713;28;20197;-80
2022/01/03 10:19:58;;;;;;;4.00;0.87;;;10.90;99.90;;;;;;4980901;28;20554;-78
2022/01/03 10:22:26;;;;;;;2.30;1.13;;;10.90;99.90;;;;;;4996710;28;20180;-76
2022/01/03 10:24:53;;;;;;;3.50;1.00;;;10.90;99.90;;;;;;4997420;28;20187;-76
2022/01/03 10:27:20;;;;;;;4.13;1.03;;;11.00;99.90;;;;;;4976171;28;20187;-77
2022/01/03 10:29:56;;;;;;;3.63;1.07;;;11.00;99.90;;;;;;4979061;28;20202;-77
2022/01/03 10:32:30;;;;;;;3.30;1.10;;;11.00;99.90;;;;;;4977928;28;20169;-78
2022/01/03 10:34:57;;;;;;;3.47;1.37;;;11.00;99.90;;;;;;4978913;28;20168;-78
2022/01/03 10:37:36;;;;;;;6.50;1.17;;;11.10;99.90;;;;;;4977613;28;20200;-77
2022/01/03 10:40:31;;;;;;;2.73;0.80;;;11.00;99.90;;;;;;4962059;28;20200;-76
2022/01/03 10:42:57;;;;;;;3.00;1.30;;;11.10;99.90;;;;;;4977520;28;20181;-77
2022/01/03 10:45:32;;;;;;;3.57;1.00;;;11.10;99.90;;;;;;4976337;28;20567;-77
2022/01/03 10:47:58;;;;;;;3.83;1.20;;;11.10;99.90;;;;;;4972135;28;20180;-78
2022/01/03 10:50:25;;;;;;;3.00;1.00;;;11.10;99.90;;;;;;4997213;28;20219;-80
2022/01/03 10:52:51;;;;;;;2.57;0.70;;;11.10;99.90;;;;;;4985899;28;20226;-78
2022/01/03 10:55:22;;;;;;;4.60;1.50;;;11.00;99.90;;;;;;4994479;28;20225;-78
2022/01/03 10:57:58;;;;;;;4.50;1.03;;;11.10;99.90;;;;;;4968226;28;20245;-76
2022/01/03 11:00:41;;;;;;;4.30;1.27;;;11.10;99.90;;;;;;4975829;28;20264;-78
2022/01/03 11:05:55;;;;;;;2.33;1.10;;;11.10;99.90;;;;;;4993542;28;20205;-78
2022/01/03 11:11:13;;;;;;;5.60;1.57;;;11.10;99.90;;;;;;4989600;28;20206;-78
2022/01/03 11:13:41;;;;;;;3.20;1.20;;;11.10;99.90;;;;;;4986862;28;20639;-77
2022/01/03 11:16:08;;;;;;;5.30;1.57;;;11.10;99.90;;;;;;4971050;28;20274;-79
2022/01/03 11:18:44;;;;;;;3.37;0.97;;;11.10;99.90;;;;;;4971796;28;20200;-76
2022/01/03 11:21:16;;;;;;;6.53;1.40;;;11.10;99.90;;;;;;4994483;28;20172;-77
2022/01/03 11:23:46;;;;;;;7.97;1.50;;;11.20;99.90;;;;;;4989272;28;20179;-78
2022/01/03 11:26:20;;;;;;;3.97;1.10;;;11.20;99.90;;;;;;4987418;28;20269;-77
2022/01/03 11:28:47;;;;;;;3.53;1.67;;;11.20;99.90;;;;;;4994975;28;20184;-77
2022/01/03 11:31:16;;;;;;;5.00;1.47;;;11.20;99.90;;;;;;4996775;28;20204;-75
2022/01/03 11:33:41;;;;;;;2.87;1.30;;;11.20;99.90;;;;;;4985466;28;20177;-75
2022/01/03 11:36:08;;;;;;;5.23;2.00;;;11.20;99.90;;;;;;4993523;28;20615;-77
2022/01/03 11:38:39;;;;;;;4.53;2.03;;;11.20;99.90;;;;;;4978275;28;20584;-78
2022/01/03 11:41:08;;;;;;;4.13;1.30;;;11.20;99.90;;;;;;4981824;28;20199;-76
2022/01/03 11:43:36;;;;;;;3.57;1.60;;;11.20;99.90;;;;;;5000308;28;20253;-78
2022/01/03 11:46:02;;;;;;;3.40;1.60;;;11.30;99.90;;;;;;5005776;28;20292;-78
2022/01/03 11:48:29;;;;;;;3.60;1.30;;;11.30;99.90;;;;;;5000862;28;20231;-77
2022/01/03 11:51:03;;;;;;;4.47;1.40;;;11.30;99.90;;;;;;5007646;28;20196;-78
2022/01/03 11:53:30;;;;;;;4.00;1.17;;;11.30;99.90;;;;;;5000430;28;20183;-80
2022/01/03 11:56:17;;;;;;;5.53;1.57;;;11.30;99.90;;;;;;5009661;28;20188;-79
2022/01/03 12:04:16;;;;;;;5.17;1.20;;;11.40;99.90;;;;;;5012121;28;20181;-79
2022/01/03 12:06:43;;;;;;;5.33;1.20;;;11.40;99.90;;;;;;5007757;28;20208;-79
2022/01/03 12:09:14;;;;;;;7.03;1.47;;;11.40;99.90;;;;;;5008417;28;20177;-79
2022/01/03 12:11:53;;;;;;;2.00;1.30;;;11.40;99.90;;;;;;5005300;28;20198;-79
2022/01/03 12:14:20;;;;;;;4.40;1.50;;;11.40;99.90;;;;;;5021196;28;20312;-79
2022/01/03 12:17:03;;;;;;;4.00;1.20;;;11.40;99.90;;;;;;5009711;28;20200;-78
2022/01/03 12:19:30;;;;;;;4.60;0.97;;;11.40;99.90;;;;;;5008960;28;20181;-79
2022/01/03 12:22:06;;;;;;;3.43;1.20;;;11.40;99.90;;;;;;5005784;28;20173;-78
2022/01/03 12:24:38;;;;;;;3.33;1.20;;;11.40;99.90;;;;;;5007687;28;20603;-79
2022/01/03 12:27:10;;;;;;;5.53;1.50;;;11.40;99.90;;;;;;5007435;28;20234;-80
2022/01/03 12:29:57;;;;;;;3.60;1.13;;;11.30;99.90;;;;;;5006617;28;20218;-79
2022/01/03 12:32:23;;;;;;;2.67;0.90;;;11.30;99.90;;;;;;4997222;28;20243;-79
2022/01/03 12:35:07;;;;;;;3.67;1.20;;;11.30;99.90;;;;;;5008763;28;20723;-78
2022/01/03 12:37:52;;;;;;;6.30;1.40;;;11.30;99.90;;;;;;4987538;28;20190;-78
2022/01/03 12:40:27;;;;;;;3.70;1.30;;;11.30;99.90;;;;;;5003213;28;20176;-79
2022/01/03 12:42:59;;;;;;;4.70;1.10;;;11.30;99.90;;;;;;5002042;28;20176;-79
2022/01/03 12:45:30;;;;;;;3.20;1.07;;;11.30;99.90;;;;;;5003221;28;20668;-79
2022/01/03 12:48:11;;;;;;;5.00;0.93;;;11.30;99.90;;;;;;5008858;28;20190;-79
2022/01/03 12:50:51;;;;;;;3.23;1.50;;;11.20;99.90;;;;;;5013100;28;20292;-80
2022/01/03 12:53:23;;;;;;;2.93;1.50;;;11.30;99.90;;;;;;5004971;28;20178;-80
2022/01/03 12:55:53;;;;;;;4.77;1.30;;;11.30;99.90;;;;;;5008962;28;20198;-80
2022/01/03 12:58:19;;;;;;;4.40;1.47;;;11.30;99.90;;;;;;4989042;28;20225;-80
2022/01/03 13:00:54;;;;;;;3.07;1.20;;;11.30;99.90;;;;;;4988827;28;20181;-80
2022/01/03 13:03:39;;;;;;;2.80;1.10;;;11.30;99.90;;;;;;5006403;28;20170;-80
2022/01/03 13:06:13;;;;;;;4.20;1.17;;;11.30;99.90;;;;;;5003644;28;20209;-81
2022/01/03 13:08:40;;;;;;;3.23;1.00;;;11.30;99.90;;;;;;4985077;28;20187;-80
2022/01/03 13:11:11;;;;;;;4.33;1.20;;;11.40;99.90;;;;;;5006914;28;20205;-81
2022/01/03 13:13:38;;;;;;;4.47;1.30;;;11.30;99.90;;;;;;4989054;28;20662;-80